Havbugvin — XPYL — position and weather

sailwx.info

Track history (hours):
 
Tides and Currents Weather Stations Pressure Air Temp Water Temp Dewpoint Dewpoint Depression Visibility Wind Speed Wind Dir Waves Ship Positions

Havbugvin

Last reported at 2015-Jan-30 11:06 UTC. Time now 2015-Jan-31 16:17 UTC.
Position N 62°21' W 008°26'.

Length 38 m.

Type: Fishing. MMSI: 231181000.

Date/timePositionNaut miles runAvg speedWind from/ knotsBaromVisibWave heightAir tempDewpointWater temp
2015-Jan-30 11:06N 62°21' W 008°26'  
2015-Jan-27 20:13N 62°00' W 007°26'5 6.9
2015-Jan-27 19:33N 61°59' W 007°17'6 6.2
2015-Jan-27 18:33N 61°57' W 007°04'6 5.9
2015-Jan-27 17:33N 61°56' W 006°52'5 5.3
2015-Jan-27 16:33N 61°58' W 006°43'2 2.5
2015-Jan-27 15:33N 62°00' W 006°46'0 0.0
2015-Jan-27 14:33N 62°00' W 006°46'0 0.0
2015-Jan-27 13:33N 62°00' W 006°46'0 0.0
2015-Jan-27 12:33N 62°00' W 006°46'0 0.0
2015-Jan-27 11:33N 62°00' W 006°46'0 0.0
2015-Jan-27 10:33N 62°00' W 006°46'0 0.0
2015-Jan-27 09:33N 62°00' W 006°46'0 0.0
2015-Jan-27 08:33N 62°00' W 006°46'0 0.0
2015-Jan-27 07:33N 62°00' W 006°46'0 0.0
2015-Jan-27 06:33N 62°00' W 006°46'0 0.0
2015-Jan-27 05:33N 62°00' W 006°46'0 0.0
2015-Jan-27 04:33N 62°00' W 006°46'0 0.0
2015-Jan-27 03:33N 62°00' W 006°46'0 0.0
2015-Jan-27 02:33N 62°00' W 006°46'0 0.0
2015-Jan-27 01:33N 62°00' W 006°46'0 0.0
2015-Jan-27 00:33N 62°00' W 006°46'0 0.0
2015-Jan-26 23:33N 62°00' W 006°46'0 0.0
2015-Jan-26 22:33N 62°00' W 006°46'0 0.0
2015-Jan-26 21:33N 62°00' W 006°46'0 0.0
2015-Jan-26 20:33N 62°00' W 006°46'0 0.0
2015-Jan-26 19:33N 62°00' W 006°46'0 0.0
2015-Jan-26 18:33N 62°00' W 006°46'0 0.0
2015-Jan-26 17:33N 62°00' W 006°46'0 0.0
2015-Jan-26 16:33N 62°00' W 006°46'0 0.0
2015-Jan-26 15:33N 62°00' W 006°46'0 0.0
2015-Jan-26 14:33N 62°00' W 006°46'0 0.0
2015-Jan-26 13:33N 62°00' W 006°46'0 0.0
2015-Jan-26 12:33N 62°00' W 006°46'0 0.0
2015-Jan-26 11:33N 62°00' W 006°46'0 0.0
2015-Jan-26 10:33N 62°00' W 006°46'0 0.0
2015-Jan-26 09:33N 62°00' W 006°46'0 0.0
2015-Jan-26 08:33N 62°00' W 006°46'0 0.0
2015-Jan-26 07:33N 62°00' W 006°46'0 0.0
2015-Jan-26 06:33N 62°00' W 006°46'0 0.0
2015-Jan-26 05:33N 62°00' W 006°46'0 0.0
2015-Jan-26 04:33N 62°00' W 006°46'0 0.0
2015-Jan-26 03:33N 62°00' W 006°46'0 0.0
2015-Jan-26 02:33N 62°00' W 006°46'0 0.0
2015-Jan-26 01:33N 62°00' W 006°46'0 0.0
2015-Jan-26 00:33N 62°00' W 006°46'0 0.0
2015-Jan-25 23:33N 62°00' W 006°46'0 0.0
2015-Jan-25 22:33N 62°00' W 006°46'0 0.0
2015-Jan-25 21:33N 62°00' W 006°46'0 0.0
2015-Jan-25 20:33N 62°00' W 006°46'0 0.0
2015-Jan-25 19:33N 62°00' W 006°46'0 0.0
2015-Jan-25 18:33N 62°00' W 006°46'0 0.0
2015-Jan-25 17:33N 62°00' W 006°46'0 0.0
2015-Jan-25 16:33N 62°00' W 006°46'0 0.0
2015-Jan-25 15:33N 62°00' W 006°46'0 0.0
2015-Jan-25 14:33N 62°00' W 006°46'0 0.0
2015-Jan-25 13:33N 62°00' W 006°46'0 0.0
2015-Jan-25 12:33N 62°00' W 006°46'0 0.0
2015-Jan-25 11:33N 62°00' W 006°46'0 0.0
2015-Jan-25 10:33N 62°00' W 006°46'0 0.0
2015-Jan-25 09:33N 62°00' W 006°46'0 0.0
2015-Jan-25 08:33N 62°00' W 006°46'0 0.0
2015-Jan-25 07:33N 62°00' W 006°46'0 0.0
2015-Jan-25 06:33N 62°00' W 006°46'0 0.0
2015-Jan-25 05:33N 62°00' W 006°46'0 0.0
2015-Jan-25 04:33N 62°00' W 006°46'0 0.0
2015-Jan-25 03:33N 62°00' W 006°46'0 0.0
2015-Jan-25 02:34N 62°00' W 006°46'0 0.0
2015-Jan-25 01:33N 62°00' W 006°46'0 0.0
2015-Jan-25 00:33N 62°00' W 006°46'0 0.0
2015-Jan-24 23:33N 62°00' W 006°46'0 0.0
2015-Jan-24 22:33N 62°00' W 006°46'0 0.0
2015-Jan-24 21:33N 62°00' W 006°46'0 0.0
2015-Jan-24 20:33N 62°00' W 006°46'0 0.0
2015-Jan-24 19:33N 62°00' W 006°46'0 0.0
2015-Jan-24 18:33N 62°00' W 006°46'0 0.0
2015-Jan-24 17:33N 62°00' W 006°46'0 0.0
2015-Jan-24 16:33N 62°00' W 006°46'0 0.0
2015-Jan-24 15:33N 62°00' W 006°46'0 0.0
2015-Jan-24 14:33N 62°00' W 006°46'0 0.0
2015-Jan-24 13:33N 62°00' W 006°46'0 0.0
2015-Jan-24 12:33N 62°00' W 006°46'0 0.0
2015-Jan-24 11:33N 62°00' W 006°46'0 0.0
2015-Jan-24 10:33N 62°00' W 006°46'0 0.0
2015-Jan-24 09:33N 62°00' W 006°46'0 0.0
2015-Jan-24 08:33N 62°00' W 006°46'0 0.0
2015-Jan-24 07:33N 62°00' W 006°46'0 0.0
2015-Jan-24 06:33N 62°00' W 006°46'0 0.0
2015-Jan-24 05:33N 62°00' W 006°46'0 0.0
2015-Jan-24 04:33N 62°00' W 006°46'0 0.0
2015-Jan-24 03:33N 62°00' W 006°46'0 0.0
2015-Jan-24 02:33N 62°00' W 006°46'0 0.0
2015-Jan-24 01:33N 62°00' W 006°46'0 0.0
2015-Jan-24 00:33N 62°00' W 006°46'0 0.0
2015-Jan-23 23:33N 62°00' W 006°46'0 0.0
2015-Jan-23 22:33N 62°00' W 006°46'0 0.0
2015-Jan-23 21:33N 62°00' W 006°46'0 0.0
2015-Jan-23 20:33N 62°00' W 006°46'0 0.0
2015-Jan-23 19:33N 62°00' W 006°46'0 0.0
2015-Jan-23 18:33N 62°00' W 006°46'0 0.0
2015-Jan-23 17:33N 62°00' W 006°46'0 0.0
2015-Jan-23 16:33N 62°00' W 006°46'0 0.0
2015-Jan-23 15:33N 62°00' W 006°46'0 0.1
2015-Jan-23 14:21N 62°00' W 006°46'0 0.0
2015-Jan-23 13:33N 62°00' W 006°46'0 0.0
2015-Jan-23 12:34N 62°00' W 006°46'0 0.0
2015-Jan-23 11:34N 62°00' W 006°46'0 0.0
2015-Jan-23 10:33N 62°00' W 006°46'0 0.0
2015-Jan-23 09:33N 62°00' W 006°46'0 0.0
2015-Jan-23 08:34N 62°00' W 006°46'0 0.0
2015-Jan-23 07:33N 62°00' W 006°46'0 0.0
2015-Jan-23 06:33N 62°00' W 006°46'0 0.0
2015-Jan-23 05:33N 62°00' W 006°46'0 0.0
2015-Jan-23 04:33N 62°00' W 006°46'0 0.0
2015-Jan-23 03:33N 62°00' W 006°46'0 0.0
2015-Jan-23 02:33N 62°00' W 006°46'0 0.0
2015-Jan-23 01:33N 62°00' W 006°46'0 0.0
2015-Jan-23 00:33N 62°00' W 006°46'0 0.0
2015-Jan-22 23:34N 62°00' W 006°46'0 0.0
2015-Jan-22 22:33N 62°00' W 006°46'0 0.0
2015-Jan-22 21:33N 62°00' W 006°46'0 0.0
2015-Jan-22 20:33N 62°00' W 006°46'0 0.0
2015-Jan-22 19:33N 62°00' W 006°46'0 0.0
2015-Jan-22 18:34N 62°00' W 006°46'0 0.0
2015-Jan-22 17:33N 62°00' W 006°46'0 0.0
2015-Jan-22 16:33N 62°00' W 006°46'0 0.2
2015-Jan-22 15:33N 62°00' W 006°46'4 4.2
2015-Jan-22 14:33N 62°03' W 006°40'8 7.6
2015-Jan-22 13:34N 62°11' W 006°37'5 5.2
2015-Jan-22 12:31N 62°16' W 006°40'11 9.0
2015-Jan-22 11:21N 62°26' W 006°48'17 7.4
2015-Jan-22 09:07N 62°41' W 007°05'1 1.0
2015-Jan-22 08:26N 62°40' W 007°03'1 1.3
2015-Jan-22 07:32N 62°40' W 007°01'1 1.5
2015-Jan-22 06:33N 62°40' W 006°58'1 1.3
2015-Jan-22 05:29N 62°39' W 006°57'1 1.4
2015-Jan-22 04:28N 62°39' W 006°55'1 0.7
2015-Jan-22 03:14N 62°40' W 006°56'5 5.5
2015-Jan-22 02:23N 62°40' W 007°06'6 0.7
2015-Jan-21 17:04N 62°37' W 007°18'2 1.6
2015-Jan-21 15:33N 62°38' W 007°14'8 3.9
2015-Jan-21 13:33N 62°39' W 006°57'5 4.5
2015-Jan-21 12:32N 62°40' W 007°06'4 4.3
2015-Jan-21 11:29N 62°38' W 007°15'  
Track history (hours):
 
Tides and Currents Weather Stations Pressure Air Temp Water Temp Dewpoint Dewpoint Depression Visibility Wind Speed Wind Dir Waves Ship Positions

Havbugvin

Last reported at 2015-Jan-30 11:06 UTC. Time now 2015-Jan-31 16:17 UTC.
Position N 62°21' W 008°26'.

Length 38 m.

Type: Fishing. MMSI: 231181000.

Date/timePositionNaut miles runAvg speedWind from/ knotsBaromVisibWave heightAir tempDewpointWater temp
2015-Jan-30 11:06N 62°21' W 008°26'  
2015-Jan-27 20:13N 62°00' W 007°26'5 6.9
2015-Jan-27 19:33N 61°59' W 007°17'6 6.2
2015-Jan-27 18:33N 61°57' W 007°04'6 5.9
2015-Jan-27 17:33N 61°56' W 006°52'5 5.3
2015-Jan-27 16:33N 61°58' W 006°43'2 2.5
2015-Jan-27 15:33N 62°00' W 006°46'0 0.0
2015-Jan-27 14:33N 62°00' W 006°46'0 0.0
2015-Jan-27 13:33N 62°00' W 006°46'0 0.0
2015-Jan-27 12:33N 62°00' W 006°46'0 0.0
2015-Jan-27 11:33N 62°00' W 006°46'0 0.0
2015-Jan-27 10:33N 62°00' W 006°46'0 0.0
2015-Jan-27 09:33N 62°00' W 006°46'0 0.0
2015-Jan-27 08:33N 62°00' W 006°46'0 0.0
2015-Jan-27 07:33N 62°00' W 006°46'0 0.0
2015-Jan-27 06:33N 62°00' W 006°46'0 0.0
2015-Jan-27 05:33N 62°00' W 006°46'0 0.0
2015-Jan-27 04:33N 62°00' W 006°46'0 0.0
2015-Jan-27 03:33N 62°00' W 006°46'0 0.0
2015-Jan-27 02:33N 62°00' W 006°46'0 0.0
2015-Jan-27 01:33N 62°00' W 006°46'0 0.0
2015-Jan-27 00:33N 62°00' W 006°46'0 0.0
2015-Jan-26 23:33N 62°00' W 006°46'0 0.0
2015-Jan-26 22:33N 62°00' W 006°46'0 0.0
2015-Jan-26 21:33N 62°00' W 006°46'0 0.0
2015-Jan-26 20:33N 62°00' W 006°46'0 0.0
2015-Jan-26 19:33N 62°00' W 006°46'0 0.0
2015-Jan-26 18:33N 62°00' W 006°46'0 0.0
2015-Jan-26 17:33N 62°00' W 006°46'0 0.0
2015-Jan-26 16:33N 62°00' W 006°46'0 0.0
2015-Jan-26 15:33N 62°00' W 006°46'0 0.0
2015-Jan-26 14:33N 62°00' W 006°46'0 0.0
2015-Jan-26 13:33N 62°00' W 006°46'0 0.0
2015-Jan-26 12:33N 62°00' W 006°46'0 0.0
2015-Jan-26 11:33N 62°00' W 006°46'0 0.0
2015-Jan-26 10:33N 62°00' W 006°46'0 0.0
2015-Jan-26 09:33N 62°00' W 006°46'0 0.0
2015-Jan-26 08:33N 62°00' W 006°46'0 0.0
2015-Jan-26 07:33N 62°00' W 006°46'0 0.0
2015-Jan-26 06:33N 62°00' W 006°46'0 0.0
2015-Jan-26 05:33N 62°00' W 006°46'0 0.0
2015-Jan-26 04:33N 62°00' W 006°46'0 0.0
2015-Jan-26 03:33N 62°00' W 006°46'0 0.0
2015-Jan-26 02:33N 62°00' W 006°46'0 0.0
2015-Jan-26 01:33N 62°00' W 006°46'0 0.0
2015-Jan-26 00:33N 62°00' W 006°46'0 0.0
2015-Jan-25 23:33N 62°00' W 006°46'0 0.0
2015-Jan-25 22:33N 62°00' W 006°46'0 0.0
2015-Jan-25 21:33N 62°00' W 006°46'0 0.0
2015-Jan-25 20:33N 62°00' W 006°46'0 0.0
2015-Jan-25 19:33N 62°00' W 006°46'0 0.0
2015-Jan-25 18:33N 62°00' W 006°46'0 0.0
2015-Jan-25 17:33N 62°00' W 006°46'0 0.0
2015-Jan-25 16:33N 62°00' W 006°46'0 0.0
2015-Jan-25 15:33N 62°00' W 006°46'0 0.0
2015-Jan-25 14:33N 62°00' W 006°46'0 0.0
2015-Jan-25 13:33N 62°00' W 006°46'0 0.0
2015-Jan-25 12:33N 62°00' W 006°46'0 0.0
2015-Jan-25 11:33N 62°00' W 006°46'0 0.0
2015-Jan-25 10:33N 62°00' W 006°46'0 0.0
2015-Jan-25 09:33N 62°00' W 006°46'0 0.0
2015-Jan-25 08:33N 62°00' W 006°46'0 0.0
2015-Jan-25 07:33N 62°00' W 006°46'0 0.0
2015-Jan-25 06:33N 62°00' W 006°46'0 0.0
2015-Jan-25 05:33N 62°00' W 006°46'0 0.0
2015-Jan-25 04:33N 62°00' W 006°46'0 0.0
2015-Jan-25 03:33N 62°00' W 006°46'0 0.0
2015-Jan-25 02:34N 62°00' W 006°46'0 0.0
2015-Jan-25 01:33N 62°00' W 006°46'0 0.0
2015-Jan-25 00:33N 62°00' W 006°46'0 0.0
2015-Jan-24 23:33N 62°00' W 006°46'0 0.0
2015-Jan-24 22:33N 62°00' W 006°46'0 0.0
2015-Jan-24 21:33N 62°00' W 006°46'0 0.0
2015-Jan-24 20:33N 62°00' W 006°46'0 0.0
2015-Jan-24 19:33N 62°00' W 006°46'0 0.0
2015-Jan-24 18:33N 62°00' W 006°46'0 0.0
2015-Jan-24 17:33N 62°00' W 006°46'0 0.0
2015-Jan-24 16:33N 62°00' W 006°46'0 0.0
2015-Jan-24 15:33N 62°00' W 006°46'0 0.0
2015-Jan-24 14:33N 62°00' W 006°46'0 0.0
2015-Jan-24 13:33N 62°00' W 006°46'0 0.0
2015-Jan-24 12:33N 62°00' W 006°46'0 0.0
2015-Jan-24 11:33N 62°00' W 006°46'0 0.0
2015-Jan-24 10:33N 62°00' W 006°46'0 0.0
2015-Jan-24 09:33N 62°00' W 006°46'0 0.0
2015-Jan-24 08:33N 62°00' W 006°46'0 0.0
2015-Jan-24 07:33N 62°00' W 006°46'0 0.0
2015-Jan-24 06:33N 62°00' W 006°46'0 0.0
2015-Jan-24 05:33N 62°00' W 006°46'0 0.0
2015-Jan-24 04:33N 62°00' W 006°46'0 0.0
2015-Jan-24 03:33N 62°00' W 006°46'0 0.0
2015-Jan-24 02:33N 62°00' W 006°46'0 0.0
2015-Jan-24 01:33N 62°00' W 006°46'0 0.0
2015-Jan-24 00:33N 62°00' W 006°46'0 0.0
2015-Jan-23 23:33N 62°00' W 006°46'0 0.0
2015-Jan-23 22:33N 62°00' W 006°46'0 0.0
2015-Jan-23 21:33N 62°00' W 006°46'0 0.0
2015-Jan-23 20:33N 62°00' W 006°46'0 0.0
2015-Jan-23 19:33N 62°00' W 006°46'0 0.0
2015-Jan-23 18:33N 62°00' W 006°46'0 0.0
2015-Jan-23 17:33N 62°00' W 006°46'0 0.0
2015-Jan-23 16:33N 62°00' W 006°46'0 0.0
2015-Jan-23 15:33N 62°00' W 006°46'0 0.1
2015-Jan-23 14:21N 62°00' W 006°46'0 0.0
2015-Jan-23 13:33N 62°00' W 006°46'0 0.0
2015-Jan-23 12:34N 62°00' W 006°46'0 0.0
2015-Jan-23 11:34N 62°00' W 006°46'0 0.0
2015-Jan-23 10:33N 62°00' W 006°46'0 0.0
2015-Jan-23 09:33N 62°00' W 006°46'0 0.0
2015-Jan-23 08:34N 62°00' W 006°46'0 0.0
2015-Jan-23 07:33N 62°00' W 006°46'0 0.0
2015-Jan-23 06:33N 62°00' W 006°46'0 0.0
2015-Jan-23 05:33N 62°00' W 006°46'0 0.0
2015-Jan-23 04:33N 62°00' W 006°46'0 0.0
2015-Jan-23 03:33N 62°00' W 006°46'0 0.0
2015-Jan-23 02:33N 62°00' W 006°46'0 0.0
2015-Jan-23 01:33N 62°00' W 006°46'0 0.0
2015-Jan-23 00:33N 62°00' W 006°46'0 0.0
2015-Jan-22 23:34N 62°00' W 006°46'0 0.0
2015-Jan-22 22:33N 62°00' W 006°46'0 0.0
2015-Jan-22 21:33N 62°00' W 006°46'0 0.0
2015-Jan-22 20:33N 62°00' W 006°46'0 0.0
2015-Jan-22 19:33N 62°00' W 006°46'0 0.0
2015-Jan-22 18:34N 62°00' W 006°46'0 0.0
2015-Jan-22 17:33N 62°00' W 006°46'0 0.0
2015-Jan-22 16:33N 62°00' W 006°46'0 0.2
2015-Jan-22 15:33N 62°00' W 006°46'4 4.2
2015-Jan-22 14:33N 62°03' W 006°40'8 7.6
2015-Jan-22 13:34N 62°11' W 006°37'5 5.2
2015-Jan-22 12:31N 62°16' W 006°40'11 9.0
2015-Jan-22 11:21N 62°26' W 006°48'17 7.4
2015-Jan-22 09:07N 62°41' W 007°05'1 1.0
2015-Jan-22 08:26N 62°40' W 007°03'1 1.3
2015-Jan-22 07:32N 62°40' W 007°01'1 1.5
2015-Jan-22 06:33N 62°40' W 006°58'1 1.3
2015-Jan-22 05:29N 62°39' W 006°57'1 1.4
2015-Jan-22 04:28N 62°39' W 006°55'1 0.7
2015-Jan-22 03:14N 62°40' W 006°56'5 5.5
2015-Jan-22 02:23N 62°40' W 007°06'6 0.7
2015-Jan-21 17:04N 62°37' W 007°18'2 1.6
2015-Jan-21 15:33N 62°38' W 007°14'8 3.9
2015-Jan-21 13:33N 62°39' W 006°57'5 4.5
2015-Jan-21 12:32N 62°40' W 007°06'4 4.3
2015-Jan-21 11:29N 62°38' W 007°15'  

Dump ship's entire track history